Sasovo, Russia
Current Conditions -  °F | °C
As of 4:30 AM on Tuesday 23 Dec 2014 (Local Time) from UWGG Reporting Station
Scattered Clouds Scattered Clouds  
Wind Chill: 13°   Ceiling: Unl
Heat Index: 21°   Visibility: 6mi
Dew Point: 18°   Wind: 7mph
Humidity: 86%   Direction: 190°S
Pressure: 29.47"   Gusts: NA
Location:  54.35°N, 41.91°E
Report Text: UWGG 230130Z 19003MPS 9999 SCT033 M06/M08 Q0998 NOSIG 18850040RMK QFE741
Loading
Personal Weather Stations






























Interactive Weather Map New forecast layout! Learn more

10-Day Weather Forecast

Advertisements
Track Severe Weather on mobile